createdAt,value
2017-01-26T00:00:01.653Z,1019.15
2017-01-26T00:01:01.865Z,1019.17
2017-01-26T00:02:02.275Z,1019.16
2017-01-26T00:03:02.015Z,1019.15
2017-01-26T00:04:02.085Z,1019.12
2017-01-26T00:05:01.703Z,1019.14
2017-01-26T00:06:01.928Z,1019.12
2017-01-26T00:07:02.344Z,1019.11
2017-01-26T00:08:02.030Z,1019.12
2017-01-26T00:09:02.353Z,1019.08
2017-01-26T00:10:01.989Z,1019.07
2017-01-26T00:11:02.431Z,1019.04
2017-01-26T00:12:02.546Z,1019.08
2017-01-26T00:13:02.031Z,1019.05
2017-01-26T00:14:01.964Z,1018.99
2017-01-26T00:15:02.047Z,1019.02
2017-01-26T00:16:02.006Z,1018.98
2017-01-26T00:17:02.459Z,1018.95
2017-01-26T00:18:02.083Z,1018.98
2017-01-26T00:19:02.251Z,1018.97
2017-01-26T00:20:02.324Z,1019
2017-01-26T00:21:02.573Z,1018.99
2017-01-26T00:22:01.929Z,1018.99
2017-01-26T00:23:02.304Z,1018.93
2017-01-26T00:24:02.266Z,1018.95
2017-01-26T00:25:01.962Z,1019
2017-01-26T00:26:02.271Z,1019
2017-01-26T00:27:02.211Z,1018.96
2017-01-26T00:28:02.235Z,1018.96
2017-01-26T00:29:02.145Z,1018.92
2017-01-26T00:30:01.884Z,1018.89
2017-01-26T00:31:02.270Z,1018.91
2017-01-26T00:32:02.214Z,1018.9
2017-01-26T00:33:02.629Z,1018.89
2017-01-26T00:34:02.386Z,1018.92
2017-01-26T00:35:02.246Z,1018.88
2017-01-26T00:36:02.259Z,1018.9
2017-01-26T00:37:02.248Z,1018.91
2017-01-26T00:38:02.057Z,1018.9
2017-01-26T00:39:02.814Z,1018.92
2017-01-26T00:40:02.221Z,1018.88
2017-01-26T00:41:02.192Z,1018.88
2017-01-26T00:42:02.050Z,1018.9
2017-01-26T00:43:02.328Z,1018.91
2017-01-26T00:44:02.332Z,1018.92
2017-01-26T00:45:02.172Z,1018.89
2017-01-26T00:46:02.879Z,1018.89
2017-01-26T00:47:02.327Z,1018.91
2017-01-26T00:48:02.412Z,1018.9
2017-01-26T00:49:02.748Z,1018.87
2017-01-26T00:50:02.337Z,1018.86
2017-01-26T00:51:02.313Z,1018.89
2017-01-26T00:52:02.581Z,1018.86
2017-01-26T00:53:02.303Z,1018.86
2017-01-26T00:54:02.272Z,1018.83
2017-01-26T00:55:02.459Z,1018.8
2017-01-26T00:56:02.327Z,1018.83
2017-01-26T00:57:02.412Z,1018.8
2017-01-26T00:58:02.814Z,1018.8
2017-01-26T00:59:02.737Z,1018.83
2017-01-26T01:00:02.818Z,1018.81
2017-01-26T01:01:02.511Z,1018.79
2017-01-26T01:02:02.559Z,1018.78
2017-01-26T01:03:02.965Z,1018.79
2017-01-26T01:04:02.335Z,1018.75
2017-01-26T01:05:02.429Z,1018.87
2017-01-26T01:06:02.520Z,1018.83
2017-01-26T01:07:02.721Z,1018.84
2017-01-26T01:08:02.514Z,1018.84
2017-01-26T01:09:02.917Z,1018.87
2017-01-26T01:10:02.865Z,1018.84
2017-01-26T01:11:03.005Z,1018.82
2017-01-26T01:12:02.560Z,1018.79
2017-01-26T01:13:02.839Z,1018.8
2017-01-26T01:14:02.663Z,1018.8
2017-01-26T01:15:02.871Z,1018.8
2017-01-26T01:16:02.549Z,1018.79
2017-01-26T01:17:02.969Z,1018.8
2017-01-26T01:18:02.734Z,1018.71
2017-01-26T01:19:02.553Z,1018.69
2017-01-26T01:20:02.778Z,1018.65
2017-01-26T01:21:02.979Z,1018.72
2017-01-26T01:22:03.052Z,1018.71
2017-01-26T01:23:03.126Z,1018.72
2017-01-26T01:24:02.646Z,1018.72
2017-01-26T01:25:02.694Z,1018.72
2017-01-26T01:26:02.864Z,1018.64
2017-01-26T01:27:02.871Z,1018.63
2017-01-26T01:28:02.712Z,1018.65
2017-01-26T01:29:02.650Z,1018.58
2017-01-26T01:30:03.234Z,1018.58
2017-01-26T01:31:02.819Z,1018.61
2017-01-26T01:32:03.062Z,1018.58
2017-01-26T01:33:03.587Z,1018.54
2017-01-26T01:34:02.863Z,1018.56
2017-01-26T01:35:02.930Z,1018.59
2017-01-26T01:36:03.135Z,1018.58
2017-01-26T01:37:03.144Z,1018.56
2017-01-26T01:38:03.144Z,1018.57
2017-01-26T01:39:03.002Z,1018.55
2017-01-26T01:40:03.139Z,1018.51
2017-01-26T01:41:03.133Z,1018.52
2017-01-26T01:42:02.927Z,1018.54
2017-01-26T01:43:02.789Z,1018.55
2017-01-26T01:44:03.076Z,1018.53
2017-01-26T01:45:03.106Z,1018.53
2017-01-26T01:46:03.206Z,1018.54
2017-01-26T01:47:03.187Z,1018.53
2017-01-26T01:48:03.478Z,1018.51
2017-01-26T01:49:03.065Z,1018.49
2017-01-26T01:50:03.074Z,1018.52
2017-01-26T01:51:03.417Z,1018.49
2017-01-26T01:52:03.453Z,1018.51
2017-01-26T01:53:03.144Z,1018.48
2017-01-26T01:54:03.131Z,1018.45
2017-01-26T01:55:03.167Z,1018.43
2017-01-26T01:56:03.214Z,1018.44
2017-01-26T01:57:03.202Z,1018.44
2017-01-26T01:58:03.194Z,1018.44
2017-01-26T01:59:03.131Z,1018.44
2017-01-26T02:00:03.181Z,1018.42
2017-01-26T02:01:03.954Z,1018.45
2017-01-26T02:02:03.255Z,1018.42
2017-01-26T02:03:03.356Z,1018.39
2017-01-26T02:04:03.120Z,1018.46
2017-01-26T02:05:03.610Z,1018.41
2017-01-26T02:06:03.165Z,1018.44
2017-01-26T02:07:03.408Z,1018.46
2017-01-26T02:08:03.429Z,1018.4
2017-01-26T02:09:03.267Z,1018.38
2017-01-26T02:10:04.071Z,1018.43
2017-01-26T02:11:03.244Z,1018.41
2017-01-26T02:12:03.862Z,1018.45
2017-01-26T02:13:03.230Z,1018.45
2017-01-26T02:14:03.321Z,1018.47
2017-01-26T02:15:03.196Z,1018.45
2017-01-26T02:16:03.216Z,1018.43
2017-01-26T02:17:03.472Z,1018.41
2017-01-26T02:18:03.343Z,1018.39
2017-01-26T02:19:03.267Z,1018.44
2017-01-26T02:20:03.581Z,1018.45
2017-01-26T02:21:03.772Z,1018.39
2017-01-26T02:22:03.349Z,1018.39
2017-01-26T02:23:03.425Z,1018.38
2017-01-26T02:24:03.537Z,1018.35
2017-01-26T02:25:03.417Z,1018.36
2017-01-26T02:26:03.336Z,1018.34
2017-01-26T02:27:03.280Z,1018.37
2017-01-26T02:28:03.615Z,1018.34
2017-01-26T02:29:03.749Z,1018.34
2017-01-26T02:30:03.997Z,1018.32
2017-01-26T02:31:03.433Z,1018.32
2017-01-26T02:32:03.451Z,1018.31
2017-01-26T02:33:03.324Z,1018.34
2017-01-26T02:34:03.750Z,1018.37
2017-01-26T02:35:04.228Z,1018.35
2017-01-26T02:36:03.881Z,1018.32
2017-01-26T02:37:03.488Z,1018.31
2017-01-26T02:38:03.570Z,1018.32
2017-01-26T02:39:03.945Z,1018.29
2017-01-26T02:40:03.623Z,1018.28
2017-01-26T02:41:03.619Z,1018.29
2017-01-26T02:42:03.650Z,1018.29
2017-01-26T02:43:03.803Z,1018.24
2017-01-26T02:44:03.444Z,1018.24
2017-01-26T02:45:03.976Z,1018.22
2017-01-26T02:46:03.594Z,1018.23
2017-01-26T02:47:04.454Z,1018.24
2017-01-26T02:48:04.132Z,1018.23
2017-01-26T02:49:03.513Z,1018.25
2017-01-26T02:50:03.926Z,1018.26
2017-01-26T02:51:03.585Z,1018.27
2017-01-26T02:52:03.720Z,1018.23
2017-01-26T02:53:03.968Z,1018.23
2017-01-26T02:54:03.565Z,1018.23
2017-01-26T02:55:03.805Z,1018.22
2017-01-26T02:56:03.553Z,1018.18
2017-01-26T02:57:04.447Z,1018.2
2017-01-26T02:58:03.765Z,1018.22
2017-01-26T02:59:03.925Z,1018.21
2017-01-26T03:00:03.656Z,1018.16
2017-01-26T03:01:03.929Z,1018.18
2017-01-26T03:02:03.877Z,1018.14
2017-01-26T03:03:03.874Z,1018.11
2017-01-26T03:04:03.656Z,1018.16
2017-01-26T03:05:03.766Z,1018.07
2017-01-26T03:06:04.112Z,1018.12
2017-01-26T03:07:04.045Z,1018.09
2017-01-26T03:08:04.879Z,1018.07
2017-01-26T03:09:04.398Z,1018.09
2017-01-26T03:10:04.311Z,1018.07
2017-01-26T03:11:04.380Z,1018.08
2017-01-26T03:12:04.613Z,1018.08
2017-01-26T03:13:04.250Z,1018.07
2017-01-26T03:14:04.057Z,1018.03
2017-01-26T03:15:04.111Z,1018.03
2017-01-26T03:16:03.771Z,1018.01
2017-01-26T03:17:04.340Z,1018.03
2017-01-26T03:18:04.236Z,1017.99
2017-01-26T03:19:04.109Z,1018.02
2017-01-26T03:20:04.140Z,1018.01
2017-01-26T03:21:04.273Z,1018.04
2017-01-26T03:22:04.307Z,1017.95
2017-01-26T03:23:04.099Z,1017.96
2017-01-26T03:24:04.216Z,1018.01
2017-01-26T03:25:04.050Z,1017.98
2017-01-26T03:26:04.328Z,1018
2017-01-26T03:27:04.556Z,1018.02
2017-01-26T03:28:04.067Z,1018.02
2017-01-26T03:29:04.363Z,1017.99
2017-01-26T03:30:04.166Z,1018
2017-01-26T03:31:04.326Z,1018.04
2017-01-26T03:32:04.300Z,1018.01
2017-01-26T03:33:03.986Z,1018.01
2017-01-26T03:34:04.463Z,1018.01
2017-01-26T03:35:04.333Z,1018.04
2017-01-26T03:36:04.477Z,1018.02
2017-01-26T03:37:04.304Z,1018.02
2017-01-26T03:38:04.327Z,1018.02
2017-01-26T03:39:04.962Z,1018.01
2017-01-26T03:40:04.060Z,1018.01
2017-01-26T03:41:04.205Z,1018.06
2017-01-26T03:42:04.022Z,1018.02
2017-01-26T03:43:04.254Z,1017.99
2017-01-26T03:44:04.629Z,1017.95
2017-01-26T03:45:05.018Z,1017.93
2017-01-26T03:46:04.205Z,1017.89
2017-01-26T03:47:04.278Z,1017.9
2017-01-26T03:48:04.190Z,1017.88
2017-01-26T03:49:04.362Z,1017.87
2017-01-26T03:50:04.357Z,1017.85
2017-01-26T03:51:04.360Z,1017.87
2017-01-26T03:52:04.158Z,1017.89
2017-01-26T03:53:04.952Z,1017.87
2017-01-26T03:54:04.683Z,1017.82
2017-01-26T03:55:04.491Z,1017.85
2017-01-26T03:56:04.298Z,1017.81
2017-01-26T03:57:04.504Z,1017.86
2017-01-26T03:58:04.377Z,1017.81
2017-01-26T03:59:04.716Z,1017.81
2017-01-26T04:00:04.631Z,1017.82
2017-01-26T04:01:04.478Z,1017.84
2017-01-26T04:02:04.632Z,1017.77
2017-01-26T04:03:04.540Z,1017.8
2017-01-26T04:04:04.513Z,1017.77
2017-01-26T04:05:04.559Z,1017.77
2017-01-26T04:06:04.603Z,1017.76
2017-01-26T04:07:04.550Z,1017.74
2017-01-26T04:08:05.339Z,1017.72
2017-01-26T04:09:04.529Z,1017.73
2017-01-26T04:10:05.126Z,1017.74
2017-01-26T04:11:04.506Z,1017.7
2017-01-26T04:12:04.535Z,1017.73
2017-01-26T04:13:04.643Z,1017.69
2017-01-26T04:14:04.616Z,1017.69
2017-01-26T04:15:04.575Z,1017.69
2017-01-26T04:16:04.863Z,1017.66
2017-01-26T04:17:05.085Z,1017.65
2017-01-26T04:18:04.905Z,1017.63
2017-01-26T04:19:04.659Z,1017.61
2017-01-26T04:20:04.562Z,1017.59
2017-01-26T04:21:05.642Z,1017.58
2017-01-26T04:22:05.055Z,1017.56
2017-01-26T04:23:04.906Z,1017.54
2017-01-26T04:24:04.603Z,1017.55
2017-01-26T04:25:04.691Z,1017.53
2017-01-26T04:26:05.587Z,1017.51
2017-01-26T04:27:04.669Z,1017.48
2017-01-26T04:28:04.930Z,1017.49
2017-01-26T04:29:05.277Z,1017.51
2017-01-26T04:30:05.319Z,1017.51
2017-01-26T04:31:05.147Z,1017.55
2017-01-26T04:32:04.895Z,1017.53
2017-01-26T04:33:05.274Z,1017.5
2017-01-26T04:34:05.608Z,1017.5
2017-01-26T04:35:05.443Z,1017.54
2017-01-26T04:36:05.267Z,1017.51
2017-01-26T04:37:05.379Z,1017.46
2017-01-26T04:38:04.813Z,1017.46
2017-01-26T04:39:05.085Z,1017.4
2017-01-26T04:40:04.871Z,1017.4
2017-01-26T04:41:05.381Z,1017.36
2017-01-26T04:42:04.730Z,1017.35
2017-01-26T04:43:05.518Z,1017.38
2017-01-26T04:44:05.030Z,1017.36
2017-01-26T04:45:04.993Z,1017.37
2017-01-26T04:46:05.194Z,1017.34
2017-01-26T04:47:05.446Z,1017.32
2017-01-26T04:48:05.389Z,1017.34
2017-01-26T04:49:05.139Z,1017.36
2017-01-26T04:50:05.378Z,1017.37
2017-01-26T04:51:05.149Z,1017.4
2017-01-26T04:52:05.101Z,1017.37
2017-01-26T04:53:05.250Z,1017.41
2017-01-26T04:54:05.365Z,1017.4
2017-01-26T04:55:05.259Z,1017.38
2017-01-26T04:56:05.370Z,1017.38
2017-01-26T04:57:05.229Z,1017.37
2017-01-26T04:58:05.079Z,1017.37
2017-01-26T04:59:05.933Z,1017.37
2017-01-26T05:00:05.455Z,1017.41
2017-01-26T05:01:05.216Z,1017.33
2017-01-26T05:02:05.577Z,1017.38
2017-01-26T05:03:05.395Z,1017.34
2017-01-26T05:04:05.686Z,1017.36
2017-01-26T05:05:05.549Z,1017.36
2017-01-26T05:06:05.131Z,1017.35
2017-01-26T05:07:05.406Z,1017.34
2017-01-26T05:08:05.458Z,1017.34
2017-01-26T05:09:05.613Z,1017.36
2017-01-26T05:10:05.653Z,1017.35
2017-01-26T05:11:05.377Z,1017.35
2017-01-26T05:12:05.289Z,1017.36
2017-01-26T05:13:05.266Z,1017.33
2017-01-26T05:14:05.297Z,1017.36
2017-01-26T05:15:05.352Z,1017.34
2017-01-26T05:16:05.253Z,1017.34
2017-01-26T05:17:05.415Z,1017.34
2017-01-26T05:18:05.814Z,1017.32
2017-01-26T05:19:05.950Z,1017.34
2017-01-26T05:20:05.877Z,1017.33
2017-01-26T05:21:05.592Z,1017.36
2017-01-26T05:22:05.605Z,1017.3
2017-01-26T05:23:05.154Z,1017.32
2017-01-26T05:24:06.100Z,1017.32
2017-01-26T05:25:05.535Z,1017.25
2017-01-26T05:26:05.756Z,1017.23
2017-01-26T05:27:05.348Z,1017.2
2017-01-26T05:28:05.546Z,1017.22
2017-01-26T05:29:05.487Z,1017.23
2017-01-26T05:30:05.285Z,1017.22
2017-01-26T05:31:05.516Z,1017.18
2017-01-26T05:32:06.294Z,1017.19
2017-01-26T05:33:06.298Z,1017.13
2017-01-26T05:34:05.511Z,1017.14
2017-01-26T05:35:05.437Z,1017.17
2017-01-26T05:36:05.861Z,1017.15
2017-01-26T05:37:05.881Z,1017.17
2017-01-26T05:38:05.898Z,1017.19
2017-01-26T05:39:05.591Z,1017.19
2017-01-26T05:40:05.871Z,1017.15
2017-01-26T05:41:06.480Z,1017.18
2017-01-26T05:42:05.663Z,1017.2
2017-01-26T05:43:05.758Z,1017.16
2017-01-26T05:44:06.176Z,1017.19
2017-01-26T05:45:05.684Z,1017.16
2017-01-26T05:46:05.802Z,1017.13
2017-01-26T05:47:06.523Z,1017.16
2017-01-26T05:48:05.627Z,1017.14
2017-01-26T05:49:05.467Z,1017.14
2017-01-26T05:50:05.494Z,1017.15
2017-01-26T05:51:05.712Z,1017.16
2017-01-26T05:52:06.777Z,1017.14
2017-01-26T05:53:05.691Z,1017.18
2017-01-26T05:54:05.903Z,1017.17
2017-01-26T05:55:05.868Z,1017.11
2017-01-26T05:56:05.859Z,1017.06
2017-01-26T05:57:05.930Z,1017.06
2017-01-26T05:58:05.840Z,1017.09
2017-01-26T05:59:06.672Z,1017.04
2017-01-26T06:00:06.004Z,1017.07
2017-01-26T06:01:06.286Z,1017.06
2017-01-26T06:02:05.876Z,1017.04
2017-01-26T06:03:05.923Z,1017.05
2017-01-26T06:04:05.797Z,1017.1
2017-01-26T06:05:05.762Z,1017.1
2017-01-26T06:06:05.715Z,1017.11
2017-01-26T06:07:06.119Z,1017.12
2017-01-26T06:08:05.840Z,1017.13
2017-01-26T06:09:05.928Z,1017.14
2017-01-26T06:10:06.031Z,1017.16
2017-01-26T06:11:05.847Z,1017.15
2017-01-26T06:12:05.986Z,1017.18
2017-01-26T06:13:05.859Z,1017.18
2017-01-26T06:14:06.066Z,1017.21
2017-01-26T06:15:06.112Z,1017.24
2017-01-26T06:16:06.263Z,1017.2
2017-01-26T06:17:06.153Z,1017.21
2017-01-26T06:18:05.756Z,1017.18
2017-01-26T06:19:07.371Z,1017.19
2017-01-26T06:20:06.136Z,1017.13
2017-01-26T06:21:06.355Z,1017.18
2017-01-26T06:22:06.123Z,1017.14
2017-01-26T06:23:06.664Z,1017.09
2017-01-26T06:24:05.905Z,1017.14
2017-01-26T06:25:06.283Z,1017.06
2017-01-26T06:26:06.155Z,1017.04
2017-01-26T06:27:06.266Z,1017.07
2017-01-26T06:28:05.994Z,1017.08
2017-01-26T06:29:06.454Z,1016.99
2017-01-26T06:30:06.551Z,1016.98
2017-01-26T06:31:06.194Z,1016.99
2017-01-26T06:32:06.287Z,1017
2017-01-26T06:33:06.563Z,1016.98
2017-01-26T06:34:06.201Z,1016.96
2017-01-26T06:35:06.410Z,1016.99
2017-01-26T06:36:06.189Z,1016.96
2017-01-26T06:37:06.657Z,1016.99
2017-01-26T06:38:06.336Z,1016.99
2017-01-26T06:39:06.547Z,1016.96
2017-01-26T06:40:06.357Z,1016.94
2017-01-26T06:41:07.202Z,1016.96
2017-01-26T06:42:06.444Z,1016.91
2017-01-26T06:43:06.277Z,1016.85
2017-01-26T06:44:06.538Z,1016.83
2017-01-26T06:45:06.585Z,1016.85
2017-01-26T06:46:06.279Z,1016.84
2017-01-26T06:47:06.713Z,1016.82
2017-01-26T06:48:06.961Z,1016.89
2017-01-26T06:49:06.349Z,1016.91
2017-01-26T06:50:07.277Z,1016.97
2017-01-26T06:51:06.452Z,1016.9
2017-01-26T06:52:06.078Z,1016.9
2017-01-26T06:53:06.301Z,1016.97
2017-01-26T06:54:06.242Z,1016.96
2017-01-26T06:55:06.325Z,1017.01
2017-01-26T06:56:06.470Z,1017.03
2017-01-26T06:57:06.682Z,1017.04
2017-01-26T06:58:06.720Z,1017.06
2017-01-26T06:59:06.668Z,1017.05
2017-01-26T07:00:06.799Z,1017.06
2017-01-26T07:01:06.900Z,1017.1
2017-01-26T07:02:08.051Z,1017.05
2017-01-26T07:03:06.744Z,1017.05
2017-01-26T07:04:06.448Z,1017.02
2017-01-26T07:05:06.379Z,1017.01
2017-01-26T07:06:06.303Z,1017.04
2017-01-26T07:07:06.300Z,1017.02
2017-01-26T07:08:06.273Z,1016.99
2017-01-26T07:09:06.380Z,1017.06
2017-01-26T07:10:06.829Z,1017.05
2017-01-26T07:11:06.307Z,1017.06
2017-01-26T07:12:06.382Z,1017.06
2017-01-26T07:13:06.494Z,1017.04
2017-01-26T07:14:07.161Z,1017.05
2017-01-26T07:15:06.920Z,1017.06
2017-01-26T07:16:07.079Z,1017.09
2017-01-26T07:17:07.132Z,1017.1
2017-01-26T07:18:06.814Z,1017.14
2017-01-26T07:19:06.913Z,1017.16
2017-01-26T07:20:06.504Z,1017.13
2017-01-26T07:21:06.640Z,1017.18
2017-01-26T07:22:06.877Z,1017.21
2017-01-26T07:23:06.721Z,1017.21
2017-01-26T07:24:06.903Z,1017.18
2017-01-26T07:25:06.927Z,1017.18
2017-01-26T07:26:06.645Z,1017.24
2017-01-26T07:27:06.601Z,1017.22
2017-01-26T07:28:06.632Z,1017.19
2017-01-26T07:29:06.758Z,1017.19
2017-01-26T07:30:07.352Z,1017.16
2017-01-26T07:31:06.646Z,1017.15
2017-01-26T07:32:06.659Z,1017.18
2017-01-26T07:33:07.502Z,1017.13
2017-01-26T07:34:06.920Z,1017.19
2017-01-26T07:35:06.641Z,1017.15
2017-01-26T07:36:06.627Z,1017.15
2017-01-26T07:37:06.848Z,1017.18
2017-01-26T07:38:06.633Z,1017.2
2017-01-26T07:39:06.743Z,1017.18
2017-01-26T07:40:07.869Z,1017.19
2017-01-26T07:41:06.854Z,1017.21
2017-01-26T07:42:07.433Z,1017.25
2017-01-26T07:43:06.819Z,1017.23
2017-01-26T07:44:06.947Z,1017.24
2017-01-26T07:45:07.199Z,1017.27
2017-01-26T07:46:07.252Z,1017.29
2017-01-26T07:47:06.801Z,1017.25
2017-01-26T07:48:06.901Z,1017.26
2017-01-26T07:49:07.329Z,1017.28
2017-01-26T07:50:06.854Z,1017.25
2017-01-26T07:51:07.597Z,1017.28
2017-01-26T07:52:06.884Z,1017.26
2017-01-26T07:53:07.274Z,1017.28
2017-01-26T07:54:07.244Z,1017.33
2017-01-26T07:55:07.355Z,1017.32
2017-01-26T07:56:06.880Z,1017.27
2017-01-26T07:57:07.328Z,1017.3
2017-01-26T07:58:06.941Z,1017.28
2017-01-26T07:59:06.931Z,1017.3
2017-01-26T08:00:07.645Z,1017.27
2017-01-26T08:01:07.105Z,1017.25
2017-01-26T08:02:07.099Z,1017.21
2017-01-26T08:03:07.286Z,1017.28
2017-01-26T08:04:07.150Z,1017.26
2017-01-26T08:05:07.541Z,1017.21
2017-01-26T08:06:06.961Z,1017.24
2017-01-26T08:07:07.247Z,1017.23
2017-01-26T08:08:07.242Z,1017.28
2017-01-26T08:09:07.186Z,1017.26
2017-01-26T08:10:07.261Z,1017.28
2017-01-26T08:11:07.154Z,1017.21
2017-01-26T08:12:07.221Z,1017.26
2017-01-26T08:13:07.279Z,1017.26
2017-01-26T08:14:07.246Z,1017.23
2017-01-26T08:15:07.348Z,1017.24
2017-01-26T08:16:08.064Z,1017.21
2017-01-26T08:17:07.143Z,1017.23
2017-01-26T08:18:07.624Z,1017.2
2017-01-26T08:19:07.455Z,1017.2
2017-01-26T08:20:07.359Z,1017.16
2017-01-26T08:21:07.366Z,1017.2
2017-01-26T08:22:07.493Z,1017.2
2017-01-26T08:23:07.535Z,1017.2
2017-01-26T08:24:07.381Z,1017.22
2017-01-26T08:25:07.455Z,1017.23
2017-01-26T08:26:07.186Z,1017.27
2017-01-26T08:27:07.467Z,1017.28
2017-01-26T08:28:07.183Z,1017.25
2017-01-26T08:29:07.400Z,1017.24
2017-01-26T08:30:07.412Z,1017.24
2017-01-26T08:31:07.460Z,1017.23
2017-01-26T08:32:07.621Z,1017.24
2017-01-26T08:33:07.454Z,1017.25
2017-01-26T08:34:07.547Z,1017.19
2017-01-26T08:35:08.014Z,1017.22
2017-01-26T08:36:07.468Z,1017.19
2017-01-26T08:37:07.527Z,1017.17
2017-01-26T08:38:07.716Z,1017.18
2017-01-26T08:39:07.340Z,1017.15
2017-01-26T08:40:07.651Z,1017.13
2017-01-26T08:41:07.669Z,1017.15
2017-01-26T08:42:07.399Z,1017.15
2017-01-26T08:43:07.499Z,1017.14
2017-01-26T08:44:07.853Z,1017.1
2017-01-26T08:45:07.995Z,1017.13
2017-01-26T08:46:07.496Z,1017.1
2017-01-26T08:47:07.632Z,1017.07
2017-01-26T08:48:07.683Z,1017.04
2017-01-26T08:49:07.574Z,1017.1
2017-01-26T08:50:07.712Z,1017.09
2017-01-26T08:51:07.413Z,1017.05
2017-01-26T08:52:07.531Z,1017.08
2017-01-26T08:53:07.908Z,1017.05
2017-01-26T08:54:07.954Z,1017.08
2017-01-26T08:55:07.787Z,1017.08
2017-01-26T08:56:07.683Z,1017.05
2017-01-26T08:57:07.666Z,1017.1
2017-01-26T08:58:07.863Z,1017.09
2017-01-26T08:59:08.072Z,1017.09
2017-01-26T09:00:07.783Z,1017.09
2017-01-26T09:01:07.850Z,1017.03
2017-01-26T09:02:08.227Z,1017.08
2017-01-26T09:03:07.618Z,1017.01
2017-01-26T09:04:08.524Z,1017.02
2017-01-26T09:05:08.116Z,1017
2017-01-26T09:06:07.712Z,1017
2017-01-26T09:07:08.039Z,1016.98
2017-01-26T09:08:07.868Z,1017
2017-01-26T09:09:07.974Z,1017.02
2017-01-26T09:10:08.183Z,1017.03
2017-01-26T09:11:07.956Z,1017.04
2017-01-26T09:12:07.802Z,1017.08
2017-01-26T09:13:08.130Z,1017.06
2017-01-26T09:14:08.165Z,1017.11
2017-01-26T09:15:07.911Z,1017.09
2017-01-26T09:16:07.878Z,1017.09
2017-01-26T09:17:08.036Z,1017.02
2017-01-26T09:18:07.956Z,1017.06
2017-01-26T09:19:08.243Z,1017.05
2017-01-26T09:20:08.383Z,1017.04
2017-01-26T09:21:08.028Z,1017.02
2017-01-26T09:22:08.243Z,1017.05
2017-01-26T09:23:08.499Z,1017.06
2017-01-26T09:24:08.067Z,1017.1
2017-01-26T09:25:07.939Z,1017.08
2017-01-26T09:26:08.206Z,1017.08
2017-01-26T09:27:07.986Z,1017.03
2017-01-26T09:28:08.333Z,1017.1
2017-01-26T09:29:08.017Z,1017.08
2017-01-26T09:30:08.289Z,1017.11
2017-01-26T09:31:08.371Z,1017.09
2017-01-26T09:32:08.193Z,1017.07
2017-01-26T09:33:08.183Z,1017.07
2017-01-26T09:34:08.047Z,1017.07
2017-01-26T09:35:08.228Z,1017.08
2017-01-26T09:36:08.726Z,1017.07
2017-01-26T09:37:08.429Z,1017.06
2017-01-26T09:38:08.501Z,1017
2017-01-26T09:39:08.663Z,1017.08
2017-01-26T09:40:08.577Z,1017.01
2017-01-26T09:41:08.452Z,1017.03
2017-01-26T09:42:08.376Z,1017.02
2017-01-26T09:43:08.251Z,1016.97
2017-01-26T09:44:08.382Z,1017.01
2017-01-26T09:45:08.727Z,1017.01
2017-01-26T09:46:08.531Z,1017.03
2017-01-26T09:47:08.645Z,1016.99
2017-01-26T09:48:08.330Z,1017.02
2017-01-26T09:49:08.542Z,1016.99
2017-01-26T09:50:08.286Z,1016.98
2017-01-26T09:51:08.518Z,1017.02
2017-01-26T09:52:08.580Z,1016.99
2017-01-26T09:53:08.635Z,1016.98
2017-01-26T09:54:08.955Z,1016.99
2017-01-26T09:55:08.879Z,1017.03
2017-01-26T09:56:08.818Z,1017.03
2017-01-26T09:57:08.660Z,1017.02
2017-01-26T09:58:08.559Z,1017
2017-01-26T09:59:08.518Z,1017.05
2017-01-26T10:00:08.842Z,1017.1
2017-01-26T10:01:08.585Z,1017.04
2017-01-26T10:02:08.590Z,1017.08
2017-01-26T10:03:08.748Z,1017.08
2017-01-26T10:04:08.571Z,1017.12
2017-01-26T10:05:08.991Z,1017.12
2017-01-26T10:06:08.920Z,1017.13
2017-01-26T10:07:08.544Z,1017.07
2017-01-26T10:08:08.564Z,1017.08
2017-01-26T10:09:08.556Z,1017.07
2017-01-26T10:10:08.954Z,1017.06
2017-01-26T10:11:08.976Z,1017.05
2017-01-26T10:12:08.915Z,1017.06
2017-01-26T10:13:08.953Z,1017.06
2017-01-26T10:14:08.842Z,1017
2017-01-26T10:15:08.956Z,1017.03
2017-01-26T10:16:09.097Z,1017.03
2017-01-26T10:17:08.936Z,1016.96
2017-01-26T10:18:09.000Z,1017.02
2017-01-26T10:19:09.016Z,1016.98
2017-01-26T10:20:09.390Z,1016.92
2017-01-26T10:21:09.115Z,1016.92
2017-01-26T10:22:09.170Z,1016.9
2017-01-26T10:23:08.922Z,1016.89
2017-01-26T10:24:08.978Z,1016.9
2017-01-26T10:25:09.298Z,1016.91
2017-01-26T10:26:09.233Z,1016.88
2017-01-26T10:27:09.475Z,1016.89
2017-01-26T10:28:09.199Z,1016.85
2017-01-26T10:29:08.911Z,1016.88
2017-01-26T10:30:08.930Z,1016.89
2017-01-26T10:31:09.158Z,1016.88
2017-01-26T10:32:09.064Z,1016.85
2017-01-26T10:33:08.929Z,1016.84
2017-01-26T10:34:09.299Z,1016.89
2017-01-26T10:35:09.259Z,1016.85
2017-01-26T10:36:09.295Z,1016.85
2017-01-26T10:37:09.124Z,1016.82
2017-01-26T10:38:09.218Z,1016.81
2017-01-26T10:39:09.110Z,1016.78
2017-01-26T10:40:09.118Z,1016.82
2017-01-26T10:41:09.216Z,1016.81
2017-01-26T10:42:09.172Z,1016.77
2017-01-26T10:43:09.390Z,1016.76
2017-01-26T10:44:09.369Z,1016.81
2017-01-26T10:45:09.432Z,1016.78
2017-01-26T10:46:09.258Z,1016.75
2017-01-26T10:47:09.548Z,1016.77
2017-01-26T10:48:09.257Z,1016.75
2017-01-26T10:49:09.434Z,1016.69
2017-01-26T10:50:09.585Z,1016.78
2017-01-26T10:51:09.654Z,1016.77
2017-01-26T10:52:09.503Z,1016.76
2017-01-26T10:53:09.480Z,1016.78
2017-01-26T10:54:09.794Z,1016.73
2017-01-26T10:55:09.639Z,1016.75
2017-01-26T10:56:09.992Z,1016.7
2017-01-26T10:57:09.645Z,1016.65
2017-01-26T10:58:09.901Z,1016.64
2017-01-26T10:59:09.459Z,1016.68
2017-01-26T11:00:09.762Z,1016.66
2017-01-26T11:01:09.893Z,1016.67
2017-01-26T11:02:09.643Z,1016.62
2017-01-26T11:03:09.713Z,1016.62
2017-01-26T11:04:09.892Z,1016.62
2017-01-26T11:05:09.521Z,1016.62
2017-01-26T11:06:10.188Z,1016.56
2017-01-26T11:07:09.709Z,1016.56
2017-01-26T11:08:09.703Z,1016.56
2017-01-26T11:09:09.661Z,1016.46
2017-01-26T11:10:09.887Z,1016.53
2017-01-26T11:11:12.942Z,1016.47
2017-01-26T11:12:09.747Z,1016.49
2017-01-26T11:13:10.080Z,1016.43
2017-01-26T11:14:10.266Z,1016.5
2017-01-26T11:15:10.661Z,1016.44
2017-01-26T11:16:10.345Z,1016.45
2017-01-26T11:17:10.401Z,1016.39
2017-01-26T11:18:10.252Z,1016.39
2017-01-26T11:19:10.415Z,1016.37
2017-01-26T11:20:10.294Z,1016.37
2017-01-26T11:21:09.872Z,1016.39
2017-01-26T11:22:09.935Z,1016.44
2017-01-26T11:23:09.952Z,1016.43
2017-01-26T11:24:09.986Z,1016.41
2017-01-26T11:25:10.224Z,1016.41
2017-01-26T11:26:09.877Z,1016.42
2017-01-26T11:27:10.323Z,1016.39
2017-01-26T11:28:10.426Z,1016.36
2017-01-26T11:29:10.024Z,1016.35
2017-01-26T11:30:10.754Z,1016.35
2017-01-26T11:31:10.252Z,1016.38
2017-01-26T11:32:10.203Z,1016.4
2017-01-26T11:33:10.047Z,1016.34
2017-01-26T11:34:10.310Z,1016.3
2017-01-26T11:35:10.409Z,1016.31
2017-01-26T11:36:10.205Z,1016.31
2017-01-26T11:37:10.662Z,1016.33
2017-01-26T11:38:46.126Z,1016.33
2017-01-26T11:39:26.326Z,1016.28
2017-01-26T11:40:26.504Z,1016.3
2017-01-26T11:41:26.606Z,1016.22
2017-01-26T11:42:26.497Z,1016.21
2017-01-26T11:43:26.777Z,1016.26
2017-01-26T11:44:26.940Z,1016.24
2017-01-26T11:45:26.725Z,1016.17
2017-01-26T11:46:27.215Z,1016.15
2017-01-26T11:47:26.748Z,1016.14
2017-01-26T11:48:26.614Z,1016.13
2017-01-26T11:49:26.563Z,1016.14
2017-01-26T11:50:26.756Z,1016.13
2017-01-26T11:51:26.768Z,1016.12
2017-01-26T11:52:26.764Z,1016.09
2017-01-26T11:53:26.947Z,1016.06
2017-01-26T11:54:26.924Z,1016.09
2017-01-26T11:55:26.537Z,1016.05
2017-01-26T11:56:26.780Z,1016.08
2017-01-26T11:57:27.525Z,1016.05
2017-01-26T11:58:27.571Z,1016.09
2017-01-26T11:59:26.960Z,1016.06
2017-01-26T12:00:27.139Z,1016.1
2017-01-26T12:01:27.139Z,1016.1
2017-01-26T12:02:27.708Z,1016.07
2017-01-26T12:03:26.897Z,1016.09
2017-01-26T12:04:27.031Z,1016.09
2017-01-26T12:05:27.080Z,1016.12
2017-01-26T12:06:26.985Z,1016.1
2017-01-26T12:07:27.528Z,1016.09
2017-01-26T12:08:27.638Z,1016.11